sensor_id;sensor_type;location;lat;lon;timestamp;P1;durP1;ratioP1;P2;durP2;ratioP2
73168;SDS011;61379;59.732;30.468;2023-02-03T00:00:32;15.65;;;12.23;;
73168;SDS011;61379;59.732;30.468;2023-02-03T00:02:58;16.40;;;12.55;;
73168;SDS011;61379;59.732;30.468;2023-02-03T00:05:24;15.68;;;11.68;;
73168;SDS011;61379;59.732;30.468;2023-02-03T00:07:50;16.35;;;11.32;;
73168;SDS011;61379;59.732;30.468;2023-02-03T00:10:16;13.55;;;11.25;;
73168;SDS011;61379;59.732;30.468;2023-02-03T00:12:46;14.60;;;11.52;;
73168;SDS011;61379;59.732;30.468;2023-02-03T00:15:12;13.65;;;11.30;;
73168;SDS011;61379;59.732;30.468;2023-02-03T00:17:38;15.73;;;11.63;;
73168;SDS011;61379;59.732;30.468;2023-02-03T00:20:04;15.38;;;11.25;;
73168;SDS011;61379;59.732;30.468;2023-02-03T00:22:30;15.82;;;11.02;;
73168;SDS011;61379;59.732;30.468;2023-02-03T00:24:56;17.75;;;10.88;;
73168;SDS011;61379;59.732;30.468;2023-02-03T00:27:22;15.07;;;11.98;;
73168;SDS011;61379;59.732;30.468;2023-02-03T00:29:49;17.90;;;11.45;;
73168;SDS011;61379;59.732;30.468;2023-02-03T00:32:15;17.77;;;12.80;;
73168;SDS011;61379;59.732;30.468;2023-02-03T00:34:41;18.20;;;12.65;;
73168;SDS011;61379;59.732;30.468;2023-02-03T00:37:07;20.33;;;13.75;;
73168;SDS011;61379;59.732;30.468;2023-02-03T00:39:34;23.67;;;14.05;;
73168;SDS011;61379;59.732;30.468;2023-02-03T00:42:02;26.35;;;13.93;;
73168;SDS011;61379;59.732;30.468;2023-02-03T00:44:28;17.23;;;13.07;;
73168;SDS011;61379;59.732;30.468;2023-02-03T00:46:54;17.95;;;12.45;;
73168;SDS011;61379;59.732;30.468;2023-02-03T00:49:20;19.80;;;12.52;;
73168;SDS011;61379;59.732;30.468;2023-02-03T00:51:46;21.05;;;14.45;;
73168;SDS011;61379;59.732;30.468;2023-02-03T00:54:12;23.13;;;15.32;;
73168;SDS011;61379;59.732;30.468;2023-02-03T00:56:38;19.88;;;14.32;;
73168;SDS011;61379;59.732;30.468;2023-02-03T00:59:04;25.02;;;14.90;;
73168;SDS011;61379;59.732;30.468;2023-02-03T01:01:31;20.35;;;14.32;;
73168;SDS011;61379;59.732;30.468;2023-02-03T01:03:57;22.52;;;15.70;;
73168;SDS011;61379;59.732;30.468;2023-02-03T01:06:24;20.20;;;14.38;;
73168;SDS011;61379;59.732;30.468;2023-02-03T01:08:50;21.40;;;15.32;;
73168;SDS011;61379;59.732;30.468;2023-02-03T01:11:17;25.58;;;14.80;;
73168;SDS011;61379;59.732;30.468;2023-02-03T01:13:44;27.58;;;16.33;;
73168;SDS011;61379;59.732;30.468;2023-02-03T01:16:10;24.30;;;15.95;;
73168;SDS011;61379;59.732;30.468;2023-02-03T01:18:36;27.23;;;17.58;;
73168;SDS011;61379;59.732;30.468;2023-02-03T01:21:07;25.35;;;15.45;;
73168;SDS011;61379;59.732;30.468;2023-02-03T01:23:33;23.90;;;15.70;;
73168;SDS011;61379;59.732;30.468;2023-02-03T01:26:01;21.45;;;15.30;;
73168;SDS011;61379;59.732;30.468;2023-02-03T01:28:27;26.48;;;16.50;;
73168;SDS011;61379;59.732;30.468;2023-02-03T01:30:53;24.45;;;15.88;;
73168;SDS011;61379;59.732;30.468;2023-02-03T01:33:19;24.02;;;17.00;;
73168;SDS011;61379;59.732;30.468;2023-02-03T01:35:45;28.75;;;17.20;;
73168;SDS011;61379;59.732;30.468;2023-02-03T01:38:12;29.88;;;18.27;;
73168;SDS011;61379;59.732;30.468;2023-02-03T01:40:41;27.25;;;16.13;;
73168;SDS011;61379;59.732;30.468;2023-02-03T01:43:07;26.23;;;16.50;;
73168;SDS011;61379;59.732;30.468;2023-02-03T01:45:33;20.80;;;15.43;;
73168;SDS011;61379;59.732;30.468;2023-02-03T01:47:59;24.10;;;15.82;;
73168;SDS011;61379;59.732;30.468;2023-02-03T01:50:26;27.58;;;15.45;;
73168;SDS011;61379;59.732;30.468;2023-02-03T01:52:55;23.35;;;15.85;;
73168;SDS011;61379;59.732;30.468;2023-02-03T01:55:24;18.00;;;13.90;;
73168;SDS011;61379;59.732;30.468;2023-02-03T01:57:52;18.95;;;15.25;;
73168;SDS011;61379;59.732;30.468;2023-02-03T02:00:19;23.10;;;15.02;;
73168;SDS011;61379;59.732;30.468;2023-02-03T02:02:45;23.95;;;16.00;;
73168;SDS011;61379;59.732;30.468;2023-02-03T02:05:13;22.88;;;15.70;;
73168;SDS011;61379;59.732;30.468;2023-02-03T02:07:40;21.20;;;14.30;;
73168;SDS011;61379;59.732;30.468;2023-02-03T02:10:07;19.90;;;14.10;;
73168;SDS011;61379;59.732;30.468;2023-02-03T02:12:34;42.47;;;23.75;;
73168;SDS011;61379;59.732;30.468;2023-02-03T02:15:00;41.65;;;24.88;;
73168;SDS011;61379;59.732;30.468;2023-02-03T02:17:35;23.98;;;17.05;;
73168;SDS011;61379;59.732;30.468;2023-02-03T02:20:17;21.70;;;15.52;;
73168;SDS011;61379;59.732;30.468;2023-02-03T02:22:53;14.55;;;12.95;;
73168;SDS011;61379;59.732;30.468;2023-02-03T02:25:30;13.52;;;12.15;;
73168;SDS011;61379;59.732;30.468;2023-02-03T02:28:14;11.43;;;10.32;;
73168;SDS011;61379;59.732;30.468;2023-02-03T02:30:53;13.25;;;11.65;;
73168;SDS011;61379;59.732;30.468;2023-02-03T02:33:29;12.27;;;10.88;;
73168;SDS011;61379;59.732;30.468;2023-02-03T02:36:00;11.68;;;10.50;;
73168;SDS011;61379;59.732;30.468;2023-02-03T02:38:33;9.15;;;8.30;;
73168;SDS011;61379;59.732;30.468;2023-02-03T02:41:01;10.23;;;9.32;;
73168;SDS011;61379;59.732;30.468;2023-02-03T02:43:32;10.80;;;9.77;;
73168;SDS011;61379;59.732;30.468;2023-02-03T02:46:00;10.32;;;9.38;;
73168;SDS011;61379;59.732;30.468;2023-02-03T02:48:28;10.15;;;9.35;;
73168;SDS011;61379;59.732;30.468;2023-02-03T02:50:56;9.57;;;8.77;;
73168;SDS011;61379;59.732;30.468;2023-02-03T02:53:23;9.15;;;8.35;;
73168;SDS011;61379;59.732;30.468;2023-02-03T02:55:51;9.98;;;9.07;;
73168;SDS011;61379;59.732;30.468;2023-02-03T02:58:18;9.68;;;8.88;;
73168;SDS011;61379;59.732;30.468;2023-02-03T03:00:44;9.20;;;8.52;;
73168;SDS011;61379;59.732;30.468;2023-02-03T03:03:14;9.18;;;8.48;;
73168;SDS011;61379;59.732;30.468;2023-02-03T03:08:07;9.20;;;8.40;;
73168;SDS011;61379;59.732;30.468;2023-02-03T03:10:34;10.48;;;9.15;;
73168;SDS011;61379;59.732;30.468;2023-02-03T03:13:03;9.15;;;8.38;;
73168;SDS011;61379;59.732;30.468;2023-02-03T03:15:30;9.93;;;9.10;;
73168;SDS011;61379;59.732;30.468;2023-02-03T03:17:58;10.40;;;9.50;;
73168;SDS011;61379;59.732;30.468;2023-02-03T03:20:26;10.90;;;9.90;;
73168;SDS011;61379;59.732;30.468;2023-02-03T03:22:52;10.70;;;9.80;;
73168;SDS011;61379;59.732;30.468;2023-02-03T03:25:21;10.00;;;9.20;;
73168;SDS011;61379;59.732;30.468;2023-02-03T03:30:15;12.40;;;10.57;;
73168;SDS011;61379;59.732;30.468;2023-02-03T03:32:43;12.95;;;11.50;;
73168;SDS011;61379;59.732;30.468;2023-02-03T03:35:09;9.90;;;8.88;;
73168;SDS011;61379;59.732;30.468;2023-02-03T03:37:35;14.02;;;10.70;;
73168;SDS011;61379;59.732;30.468;2023-02-03T03:40:06;10.77;;;9.77;;
73168;SDS011;61379;59.732;30.468;2023-02-03T03:42:34;11.35;;;9.93;;
73168;SDS011;61379;59.732;30.468;2023-02-03T03:45:03;10.52;;;9.27;;
73168;SDS011;61379;59.732;30.468;2023-02-03T03:47:34;10.13;;;9.32;;
73168;SDS011;61379;59.732;30.468;2023-02-03T03:50:03;10.48;;;9.10;;
73168;SDS011;61379;59.732;30.468;2023-02-03T03:52:31;9.52;;;8.73;;
73168;SDS011;61379;59.732;30.468;2023-02-03T03:54:59;9.18;;;8.48;;
73168;SDS011;61379;59.732;30.468;2023-02-03T03:57:26;9.82;;;8.93;;
73168;SDS011;61379;59.732;30.468;2023-02-03T03:59:54;9.93;;;9.00;;
73168;SDS011;61379;59.732;30.468;2023-02-03T04:02:20;9.80;;;8.93;;
73168;SDS011;61379;59.732;30.468;2023-02-03T04:04:47;12.50;;;10.10;;
73168;SDS011;61379;59.732;30.468;2023-02-03T04:07:14;9.05;;;8.35;;
73168;SDS011;61379;59.732;30.468;2023-02-03T04:09:40;9.82;;;9.15;;
73168;SDS011;61379;59.732;30.468;2023-02-03T04:12:08;10.38;;;9.30;;
73168;SDS011;61379;59.732;30.468;2023-02-03T04:14:38;11.23;;;10.13;;
73168;SDS011;61379;59.732;30.468;2023-02-03T04:17:05;9.50;;;8.70;;
73168;SDS011;61379;59.732;30.468;2023-02-03T04:19:31;11.38;;;10.23;;
73168;SDS011;61379;59.732;30.468;2023-02-03T04:21:57;10.00;;;9.05;;
73168;SDS011;61379;59.732;30.468;2023-02-03T04:24:23;11.60;;;9.85;;
73168;SDS011;61379;59.732;30.468;2023-02-03T04:26:49;10.85;;;8.95;;
73168;SDS011;61379;59.732;30.468;2023-02-03T04:29:15;10.25;;;9.27;;
73168;SDS011;61379;59.732;30.468;2023-02-03T04:31:41;11.07;;;9.38;;
73168;SDS011;61379;59.732;30.468;2023-02-03T04:34:08;11.18;;;9.98;;
73168;SDS011;61379;59.732;30.468;2023-02-03T04:36:34;11.10;;;9.73;;
73168;SDS011;61379;59.732;30.468;2023-02-03T04:39:00;10.38;;;9.48;;
73168;SDS011;61379;59.732;30.468;2023-02-03T04:41:26;9.82;;;9.13;;
73168;SDS011;61379;59.732;30.468;2023-02-03T04:43:52;8.80;;;8.18;;
73168;SDS011;61379;59.732;30.468;2023-02-03T04:46:18;10.32;;;9.25;;
73168;SDS011;61379;59.732;30.468;2023-02-03T04:48:44;11.65;;;10.75;;
73168;SDS011;61379;59.732;30.468;2023-02-03T04:51:11;10.48;;;9.40;;
73168;SDS011;61379;59.732;30.468;2023-02-03T04:53:37;9.25;;;8.45;;
73168;SDS011;61379;59.732;30.468;2023-02-03T04:56:03;9.20;;;8.38;;
73168;SDS011;61379;59.732;30.468;2023-02-03T04:58:29;9.50;;;8.68;;
73168;SDS011;61379;59.732;30.468;2023-02-03T05:00:55;9.85;;;8.95;;
73168;SDS011;61379;59.732;30.468;2023-02-03T05:03:21;10.15;;;9.25;;
73168;SDS011;61379;59.732;30.468;2023-02-03T05:05:48;10.30;;;9.30;;
73168;SDS011;61379;59.732;30.468;2023-02-03T05:08:15;9.27;;;8.48;;
73168;SDS011;61379;59.732;30.468;2023-02-03T05:10:41;11.05;;;10.23;;
73168;SDS011;61379;59.732;30.468;2023-02-03T05:13:07;9.73;;;8.93;;
73168;SDS011;61379;59.732;30.468;2023-02-03T05:15:33;9.32;;;8.48;;
73168;SDS011;61379;59.732;30.468;2023-02-03T05:17:59;9.70;;;8.80;;
73168;SDS011;61379;59.732;30.468;2023-02-03T05:20:25;9.50;;;8.68;;
73168;SDS011;61379;59.732;30.468;2023-02-03T05:22:52;9.25;;;8.20;;
73168;SDS011;61379;59.732;30.468;2023-02-03T05:25:19;9.98;;;8.85;;
73168;SDS011;61379;59.732;30.468;2023-02-03T05:27:45;7.85;;;7.25;;
73168;SDS011;61379;59.732;30.468;2023-02-03T05:30:11;10.48;;;8.27;;
73168;SDS011;61379;59.732;30.468;2023-02-03T05:32:37;8.55;;;7.78;;
73168;SDS011;61379;59.732;30.468;2023-02-03T05:35:03;10.25;;;8.25;;
73168;SDS011;61379;59.732;30.468;2023-02-03T05:37:29;11.20;;;9.68;;
73168;SDS011;61379;59.732;30.468;2023-02-03T05:39:55;9.65;;;8.88;;
73168;SDS011;61379;59.732;30.468;2023-02-03T05:42:46;9.75;;;8.85;;
73168;SDS011;61379;59.732;30.468;2023-02-03T05:45:11;9.55;;;8.70;;
73168;SDS011;61379;59.732;30.468;2023-02-03T05:47:37;10.23;;;9.15;;
73168;SDS011;61379;59.732;30.468;2023-02-03T05:50:04;7.57;;;7.05;;
73168;SDS011;61379;59.732;30.468;2023-02-03T05:52:30;10.07;;;9.10;;
73168;SDS011;61379;59.732;30.468;2023-02-03T05:54:56;9.55;;;8.65;;
73168;SDS011;61379;59.732;30.468;2023-02-03T05:57:22;8.95;;;8.27;;
73168;SDS011;61379;59.732;30.468;2023-02-03T05:59:48;8.77;;;8.05;;
73168;SDS011;61379;59.732;30.468;2023-02-03T06:02:14;8.98;;;8.27;;
73168;SDS011;61379;59.732;30.468;2023-02-03T06:04:40;9.90;;;9.00;;
73168;SDS011;61379;59.732;30.468;2023-02-03T06:07:06;8.98;;;8.20;;
73168;SDS011;61379;59.732;30.468;2023-02-03T06:09:32;11.25;;;10.43;;
73168;SDS011;61379;59.732;30.468;2023-02-03T06:11:58;10.25;;;9.32;;
73168;SDS011;61379;59.732;30.468;2023-02-03T06:14:24;9.23;;;8.52;;
73168;SDS011;61379;59.732;30.468;2023-02-03T06:16:53;10.50;;;9.60;;
73168;SDS011;61379;59.732;30.468;2023-02-03T06:19:19;10.18;;;9.20;;
73168;SDS011;61379;59.732;30.468;2023-02-03T06:21:45;10.00;;;9.10;;
73168;SDS011;61379;59.732;30.468;2023-02-03T06:24:11;8.65;;;7.97;;
73168;SDS011;61379;59.732;30.468;2023-02-03T06:26:37;9.20;;;8.43;;
73168;SDS011;61379;59.732;30.468;2023-02-03T06:29:03;9.63;;;8.73;;
73168;SDS011;61379;59.732;30.468;2023-02-03T06:31:29;9.73;;;8.93;;
73168;SDS011;61379;59.732;30.468;2023-02-03T06:33:56;9.63;;;8.82;;
73168;SDS011;61379;59.732;30.468;2023-02-03T06:36:23;8.77;;;7.88;;
73168;SDS011;61379;59.732;30.468;2023-02-03T06:38:49;8.80;;;8.15;;
73168;SDS011;61379;59.732;30.468;2023-02-03T06:41:15;8.82;;;8.18;;
73168;SDS011;61379;59.732;30.468;2023-02-03T06:43:41;9.10;;;8.32;;
73168;SDS011;61379;59.732;30.468;2023-02-03T06:46:07;9.15;;;8.25;;
73168;SDS011;61379;59.732;30.468;2023-02-03T06:48:33;9.80;;;8.70;;
73168;SDS011;61379;59.732;30.468;2023-02-03T06:51:00;7.68;;;6.97;;
73168;SDS011;61379;59.732;30.468;2023-02-03T06:53:26;11.68;;;9.40;;
73168;SDS011;61379;59.732;30.468;2023-02-03T06:55:52;7.45;;;6.75;;
73168;SDS011;61379;59.732;30.468;2023-02-03T06:58:18;10.98;;;9.05;;
73168;SDS011;61379;59.732;30.468;2023-02-03T07:00:44;13.32;;;9.10;;
73168;SDS011;61379;59.732;30.468;2023-02-03T07:03:10;10.45;;;7.28;;
73168;SDS011;61379;59.732;30.468;2023-02-03T07:05:36;8.82;;;7.90;;
73168;SDS011;61379;59.732;30.468;2023-02-03T07:08:22;9.48;;;7.88;;
73168;SDS011;61379;59.732;30.468;2023-02-03T07:10:51;9.18;;;8.05;;
73168;SDS011;61379;59.732;30.468;2023-02-03T07:13:17;8.20;;;7.55;;
73168;SDS011;61379;59.732;30.468;2023-02-03T07:15:43;7.97;;;6.88;;
73168;SDS011;61379;59.732;30.468;2023-02-03T07:18:09;7.45;;;6.85;;
73168;SDS011;61379;59.732;30.468;2023-02-03T07:20:35;10.27;;;7.88;;
73168;SDS011;61379;59.732;30.468;2023-02-03T07:23:01;7.53;;;6.82;;
73168;SDS011;61379;59.732;30.468;2023-02-03T07:25:29;8.55;;;7.82;;
73168;SDS011;61379;59.732;30.468;2023-02-03T07:27:55;10.52;;;8.48;;
73168;SDS011;61379;59.732;30.468;2023-02-03T07:30:21;10.50;;;7.72;;
73168;SDS011;61379;59.732;30.468;2023-02-03T07:32:48;11.43;;;8.25;;
73168;SDS011;61379;59.732;30.468;2023-02-03T07:35:14;9.90;;;7.38;;
73168;SDS011;61379;59.732;30.468;2023-02-03T07:37:40;7.00;;;6.30;;
73168;SDS011;61379;59.732;30.468;2023-02-03T07:40:06;13.88;;;9.23;;
73168;SDS011;61379;59.732;30.468;2023-02-03T07:42:33;8.55;;;7.78;;
73168;SDS011;61379;59.732;30.468;2023-02-03T07:44:59;6.57;;;5.75;;
73168;SDS011;61379;59.732;30.468;2023-02-03T07:47:25;8.88;;;7.38;;
73168;SDS011;61379;59.732;30.468;2023-02-03T07:49:51;8.25;;;7.28;;
73168;SDS011;61379;59.732;30.468;2023-02-03T07:52:17;7.13;;;6.53;;
73168;SDS011;61379;59.732;30.468;2023-02-03T07:54:43;7.60;;;6.85;;
73168;SDS011;61379;59.732;30.468;2023-02-03T07:57:09;8.95;;;7.53;;
73168;SDS011;61379;59.732;30.468;2023-02-03T07:59:35;10.05;;;9.02;;
73168;SDS011;61379;59.732;30.468;2023-02-03T08:02:01;10.65;;;7.68;;
73168;SDS011;61379;59.732;30.468;2023-02-03T08:04:27;9.38;;;8.15;;
73168;SDS011;61379;59.732;30.468;2023-02-03T08:06:53;8.73;;;7.93;;
73168;SDS011;61379;59.732;30.468;2023-02-03T08:09:19;8.98;;;8.18;;
73168;SDS011;61379;59.732;30.468;2023-02-03T08:11:45;8.32;;;7.50;;
73168;SDS011;61379;59.732;30.468;2023-02-03T08:14:12;9.02;;;8.13;;
73168;SDS011;61379;59.732;30.468;2023-02-03T08:16:39;8.77;;;8.05;;
73168;SDS011;61379;59.732;30.468;2023-02-03T08:19:05;8.80;;;8.02;;
73168;SDS011;61379;59.732;30.468;2023-02-03T08:21:31;7.15;;;6.60;;
73168;SDS011;61379;59.732;30.468;2023-02-03T08:23:57;10.60;;;8.10;;
73168;SDS011;61379;59.732;30.468;2023-02-03T08:26:23;8.98;;;8.07;;
73168;SDS011;61379;59.732;30.468;2023-02-03T08:28:49;10.30;;;8.05;;
73168;SDS011;61379;59.732;30.468;2023-02-03T08:31:15;8.32;;;7.53;;
73168;SDS011;61379;59.732;30.468;2023-02-03T08:33:42;8.82;;;7.85;;
73168;SDS011;61379;59.732;30.468;2023-02-03T08:36:08;9.75;;;7.70;;
73168;SDS011;61379;59.732;30.468;2023-02-03T08:38:35;8.13;;;6.93;;
73168;SDS011;61379;59.732;30.468;2023-02-03T08:41:06;8.57;;;7.57;;
73168;SDS011;61379;59.732;30.468;2023-02-03T08:43:32;8.00;;;7.20;;
73168;SDS011;61379;59.732;30.468;2023-02-03T08:46:01;13.88;;;8.82;;
73168;SDS011;61379;59.732;30.468;2023-02-03T08:48:27;14.27;;;9.45;;
73168;SDS011;61379;59.732;30.468;2023-02-03T08:50:53;9.82;;;8.20;;
73168;SDS011;61379;59.732;30.468;2023-02-03T08:53:19;9.50;;;7.35;;
73168;SDS011;61379;59.732;30.468;2023-02-03T08:55:45;19.30;;;11.40;;
73168;SDS011;61379;59.732;30.468;2023-02-03T08:58:12;15.07;;;9.82;;
73168;SDS011;61379;59.732;30.468;2023-02-03T09:00:38;9.60;;;7.07;;
73168;SDS011;61379;59.732;30.468;2023-02-03T09:03:04;7.63;;;6.88;;
73168;SDS011;61379;59.732;30.468;2023-02-03T09:05:30;7.43;;;6.72;;
73168;SDS011;61379;59.732;30.468;2023-02-03T09:07:56;20.77;;;12.93;;
73168;SDS011;61379;59.732;30.468;2023-02-03T09:10:22;18.52;;;12.13;;
73168;SDS011;61379;59.732;30.468;2023-02-03T09:12:48;24.42;;;14.70;;
73168;SDS011;61379;59.732;30.468;2023-02-03T09:15:15;14.73;;;10.52;;
73168;SDS011;61379;59.732;30.468;2023-02-03T09:17:41;12.73;;;10.27;;
73168;SDS011;61379;59.732;30.468;2023-02-03T09:20:08;10.40;;;8.70;;
73168;SDS011;61379;59.732;30.468;2023-02-03T09:22:34;8.60;;;7.20;;
73168;SDS011;61379;59.732;30.468;2023-02-03T09:25:01;7.35;;;6.65;;
73168;SDS011;61379;59.732;30.468;2023-02-03T09:27:28;8.05;;;7.20;;
73168;SDS011;61379;59.732;30.468;2023-02-03T09:29:55;8.27;;;7.47;;
73168;SDS011;61379;59.732;30.468;2023-02-03T09:32:22;8.90;;;7.65;;
73168;SDS011;61379;59.732;30.468;2023-02-03T09:34:48;8.45;;;7.75;;
73168;SDS011;61379;59.732;30.468;2023-02-03T09:37:14;8.48;;;7.78;;
73168;SDS011;61379;59.732;30.468;2023-02-03T09:39:40;11.98;;;8.43;;
73168;SDS011;61379;59.732;30.468;2023-02-03T09:42:15;10.75;;;9.07;;
73168;SDS011;61379;59.732;30.468;2023-02-03T09:44:46;11.10;;;9.23;;
73168;SDS011;61379;59.732;30.468;2023-02-03T09:47:13;13.27;;;10.63;;
73168;SDS011;61379;59.732;30.468;2023-02-03T09:49:41;33.80;;;17.13;;
73168;SDS011;61379;59.732;30.468;2023-02-03T09:52:10;24.05;;;15.02;;
73168;SDS011;61379;59.732;30.468;2023-02-03T09:54:40;23.05;;;15.50;;
73168;SDS011;61379;59.732;30.468;2023-02-03T09:57:10;14.73;;;10.82;;
73168;SDS011;61379;59.732;30.468;2023-02-03T09:59:37;13.23;;;8.93;;
73168;SDS011;61379;59.732;30.468;2023-02-03T10:02:11;14.40;;;9.95;;
73168;SDS011;61379;59.732;30.468;2023-02-03T10:04:41;15.45;;;10.93;;
73168;SDS011;61379;59.732;30.468;2023-02-03T10:07:08;12.00;;;9.10;;
73168;SDS011;61379;59.732;30.468;2023-02-03T10:09:39;7.93;;;7.25;;
73168;SDS011;61379;59.732;30.468;2023-02-03T10:12:15;7.65;;;7.05;;
73168;SDS011;61379;59.732;30.468;2023-02-03T10:14:51;6.72;;;6.03;;
73168;SDS011;61379;59.732;30.468;2023-02-03T10:17:23;8.02;;;7.22;;
73168;SDS011;61379;59.732;30.468;2023-02-03T10:19:52;7.20;;;6.47;;
73168;SDS011;61379;59.732;30.468;2023-02-03T10:22:20;6.90;;;6.32;;
73168;SDS011;61379;59.732;30.468;2023-02-03T10:24:48;8.40;;;7.55;;
73168;SDS011;61379;59.732;30.468;2023-02-03T10:27:16;7.93;;;7.18;;
73168;SDS011;61379;59.732;30.468;2023-02-03T10:29:42;7.97;;;6.93;;
73168;SDS011;61379;59.732;30.468;2023-02-03T10:32:09;9.48;;;8.68;;
73168;SDS011;61379;59.732;30.468;2023-02-03T10:34:35;7.80;;;7.07;;
73168;SDS011;61379;59.732;30.468;2023-02-03T10:37:02;17.58;;;11.15;;
73168;SDS011;61379;59.732;30.468;2023-02-03T10:39:31;22.65;;;13.00;;
73168;SDS011;61379;59.732;30.468;2023-02-03T10:44:30;9.57;;;8.32;;
73168;SDS011;61379;59.732;30.468;2023-02-03T10:46:56;9.05;;;8.18;;
73168;SDS011;61379;59.732;30.468;2023-02-03T10:49:24;9.35;;;8.32;;
73168;SDS011;61379;59.732;30.468;2023-02-03T10:51:51;10.73;;;7.35;;
73168;SDS011;61379;59.732;30.468;2023-02-03T10:54:27;9.50;;;7.32;;
73168;SDS011;61379;59.732;30.468;2023-02-03T10:56:54;8.18;;;7.35;;
73168;SDS011;61379;59.732;30.468;2023-02-03T10:59:26;8.13;;;7.30;;
73168;SDS011;61379;59.732;30.468;2023-02-03T11:01:52;9.25;;;7.38;;
73168;SDS011;61379;59.732;30.468;2023-02-03T11:04:22;7.00;;;6.32;;
73168;SDS011;61379;59.732;30.468;2023-02-03T11:09:21;7.68;;;6.95;;
73168;SDS011;61379;59.732;30.468;2023-02-03T11:11:59;7.55;;;6.80;;
73168;SDS011;61379;59.732;30.468;2023-02-03T11:14:27;8.10;;;7.30;;
73168;SDS011;61379;59.732;30.468;2023-02-03T11:17:04;8.07;;;7.25;;
73168;SDS011;61379;59.732;30.468;2023-02-03T11:19:30;7.68;;;6.97;;
73168;SDS011;61379;59.732;30.468;2023-02-03T11:21:56;9.43;;;8.55;;
73168;SDS011;61379;59.732;30.468;2023-02-03T11:24:26;9.30;;;8.25;;
73168;SDS011;61379;59.732;30.468;2023-02-03T11:26:53;8.20;;;7.45;;
73168;SDS011;61379;59.732;30.468;2023-02-03T11:29:21;9.45;;;8.52;;
73168;SDS011;61379;59.732;30.468;2023-02-03T11:31:49;18.95;;;11.95;;
73168;SDS011;61379;59.732;30.468;2023-02-03T11:34:16;8.77;;;7.85;;
73168;SDS011;61379;59.732;30.468;2023-02-03T11:36:43;10.15;;;8.57;;
73168;SDS011;61379;59.732;30.468;2023-02-03T11:39:13;9.32;;;8.15;;
73168;SDS011;61379;59.732;30.468;2023-02-03T11:41:41;8.18;;;7.38;;
73168;SDS011;61379;59.732;30.468;2023-02-03T11:44:11;8.45;;;7.53;;
73168;SDS011;61379;59.732;30.468;2023-02-03T11:46:37;10.50;;;9.50;;
73168;SDS011;61379;59.732;30.468;2023-02-03T11:49:06;7.53;;;6.70;;
73168;SDS011;61379;59.732;30.468;2023-02-03T11:51:36;7.97;;;7.18;;
73168;SDS011;61379;59.732;30.468;2023-02-03T11:54:12;8.15;;;7.35;;
73168;SDS011;61379;59.732;30.468;2023-02-03T11:56:49;8.60;;;6.97;;
73168;SDS011;61379;59.732;30.468;2023-02-03T11:59:25;8.45;;;7.65;;
73168;SDS011;61379;59.732;30.468;2023-02-03T12:02:07;8.38;;;7.18;;
73168;SDS011;61379;59.732;30.468;2023-02-03T12:04:46;8.55;;;7.10;;
73168;SDS011;61379;59.732;30.468;2023-02-03T12:07:27;7.80;;;7.00;;
73168;SDS011;61379;59.732;30.468;2023-02-03T12:09:56;8.35;;;7.55;;
73168;SDS011;61379;59.732;30.468;2023-02-03T12:15:19;9.75;;;8.07;;
73168;SDS011;61379;59.732;30.468;2023-02-03T12:18:01;8.32;;;6.63;;
73168;SDS011;61379;59.732;30.468;2023-02-03T12:20:32;7.53;;;6.65;;
73168;SDS011;61379;59.732;30.468;2023-02-03T12:23:04;8.90;;;8.15;;
73168;SDS011;61379;59.732;30.468;2023-02-03T12:25:35;8.68;;;7.93;;
73168;SDS011;61379;59.732;30.468;2023-02-03T12:28:08;16.27;;;10.50;;
73168;SDS011;61379;59.732;30.468;2023-02-03T12:30:41;17.25;;;9.07;;
73168;SDS011;61379;59.732;30.468;2023-02-03T12:33:10;9.75;;;8.82;;
73168;SDS011;61379;59.732;30.468;2023-02-03T12:35:40;9.32;;;8.45;;
73168;SDS011;61379;59.732;30.468;2023-02-03T12:38:11;9.90;;;8.77;;
73168;SDS011;61379;59.732;30.468;2023-02-03T12:40:38;8.45;;;7.38;;
73168;SDS011;61379;59.732;30.468;2023-02-03T12:43:12;9.35;;;8.35;;
73168;SDS011;61379;59.732;30.468;2023-02-03T12:45:44;8.57;;;7.82;;
73168;SDS011;61379;59.732;30.468;2023-02-03T12:48:15;6.68;;;6.03;;
73168;SDS011;61379;59.732;30.468;2023-02-03T12:50:43;8.85;;;6.97;;
73168;SDS011;61379;59.732;30.468;2023-02-03T12:53:11;8.60;;;7.70;;
73168;SDS011;61379;59.732;30.468;2023-02-03T12:55:39;10.45;;;9.15;;
73168;SDS011;61379;59.732;30.468;2023-02-03T12:58:09;13.60;;;8.68;;
73168;SDS011;61379;59.732;30.468;2023-02-03T13:00:38;9.30;;;8.35;;
73168;SDS011;61379;59.732;30.468;2023-02-03T13:03:09;8.23;;;7.40;;
73168;SDS011;61379;59.732;30.468;2023-02-03T13:05:40;6.90;;;6.30;;
73168;SDS011;61379;59.732;30.468;2023-02-03T13:08:08;6.88;;;6.30;;
73168;SDS011;61379;59.732;30.468;2023-02-03T13:10:38;9.82;;;7.03;;
73168;SDS011;61379;59.732;30.468;2023-02-03T13:13:08;8.48;;;7.60;;
73168;SDS011;61379;59.732;30.468;2023-02-03T13:15:37;7.45;;;6.70;;
73168;SDS011;61379;59.732;30.468;2023-02-03T13:18:07;8.18;;;7.35;;
73168;SDS011;61379;59.732;30.468;2023-02-03T13:20:35;6.57;;;5.97;;
73168;SDS011;61379;59.732;30.468;2023-02-03T13:23:03;8.48;;;7.68;;
73168;SDS011;61379;59.732;30.468;2023-02-03T13:25:31;7.85;;;7.10;;
73168;SDS011;61379;59.732;30.468;2023-02-03T13:28:05;7.20;;;6.57;;
73168;SDS011;61379;59.732;30.468;2023-02-03T13:30:38;7.45;;;6.70;;
73168;SDS011;61379;59.732;30.468;2023-02-03T13:33:25;9.00;;;7.05;;
73168;SDS011;61379;59.732;30.468;2023-02-03T13:35:58;8.05;;;7.15;;
73168;SDS011;61379;59.732;30.468;2023-02-03T13:38:33;7.75;;;7.05;;
73168;SDS011;61379;59.732;30.468;2023-02-03T13:41:04;8.50;;;7.57;;
73168;SDS011;61379;59.732;30.468;2023-02-03T13:43:31;9.05;;;7.78;;
73168;SDS011;61379;59.732;30.468;2023-02-03T13:45:59;9.10;;;8.20;;
73168;SDS011;61379;59.732;30.468;2023-02-03T13:48:26;7.68;;;7.10;;
73168;SDS011;61379;59.732;30.468;2023-02-03T13:51:01;8.32;;;7.38;;
73168;SDS011;61379;59.732;30.468;2023-02-03T13:53:28;9.27;;;7.80;;
73168;SDS011;61379;59.732;30.468;2023-02-03T13:58:24;10.20;;;8.13;;
73168;SDS011;61379;59.732;30.468;2023-02-03T14:03:44;13.20;;;9.52;;
73168;SDS011;61379;59.732;30.468;2023-02-03T14:08:57;10.85;;;9.02;;
73168;SDS011;61379;59.732;30.468;2023-02-03T14:11:44;26.55;;;12.48;;
73168;SDS011;61379;59.732;30.468;2023-02-03T14:16:54;25.25;;;15.52;;
73168;SDS011;61379;59.732;30.468;2023-02-03T14:22:03;17.27;;;13.15;;
73168;SDS011;61379;59.732;30.468;2023-02-03T14:24:30;13.45;;;10.73;;
73168;SDS011;61379;59.732;30.468;2023-02-03T14:26:57;10.77;;;9.68;;
73168;SDS011;61379;59.732;30.468;2023-02-03T14:29:25;12.00;;;9.55;;
73168;SDS011;61379;59.732;30.468;2023-02-03T14:31:53;8.75;;;8.02;;
73168;SDS011;61379;59.732;30.468;2023-02-03T14:34:26;11.15;;;9.02;;
73168;SDS011;61379;59.732;30.468;2023-02-03T14:36:53;9.10;;;7.00;;
73168;SDS011;61379;59.732;30.468;2023-02-03T14:39:39;34.60;;;18.83;;
73168;SDS011;61379;59.732;30.468;2023-02-03T14:42:09;29.02;;;17.00;;
73168;SDS011;61379;59.732;30.468;2023-02-03T14:44:40;34.55;;;17.58;;
73168;SDS011;61379;59.732;30.468;2023-02-03T14:47:14;23.17;;;13.90;;
73168;SDS011;61379;59.732;30.468;2023-02-03T14:49:47;20.60;;;12.45;;
73168;SDS011;61379;59.732;30.468;2023-02-03T14:52:18;25.10;;;13.95;;
73168;SDS011;61379;59.732;30.468;2023-02-03T14:55:01;35.10;;;16.98;;